Main page
METAR-TAF:

METAR-TAF

Airports :

Stavanger Airport. Sola

Stavanger, Norway

latitude: 58-53N, longitude: 005-38E, elevation: 0 m

Current weather observation

The report was made 27 minutes ago, at 04:50 UTC
Wind 4 kt from the East/Southeast
Temperature 12°C
Humidity 76%
Pressure 1015 hPa
Visibility 10 km or more
Scattered clouds at a height of 1900 ft

METAR: ENZV 210450Z 12004KT 9999 SCT019 12/08 Q1015 NOSIG

Time: 07:17 (05:17 UTC)

Forecast

The report was made 6 hours and 17 minutes ago, at 23:00 UTC
Forecast valid from 21 at 00 UTC to 21 at 24 UTC
Wind 5 kt from variable directions
Visibility 10 km or more
Few clouds at a height of 1500 ft
Scattered clouds at a height of 3000 ft
Probability 30%
from 21 at 00 UTC to 21 at 05 UTC
Broken clouds at a height of 1000 ft
Becoming
from 21 at 07 UTC to 21 at 09 UTC
Wind 12 kt from the South/Southwest

TAF: ENZV 202300Z 2100/2124 VRB05KT 9999 FEW015 SCT030 PROB30 2100/2105 BKN010 BECMG 2107/2109 20012KT

Weather observations and forecasts of more than 4000 airports (METAR and TAF reports).

The available stations are represented by yellow and red dots on the map.

Hover mouse over dot to see the name of the station.

Then click to see weather observations and forecasts.

To change the map : click on the green buttons with a black cross to zoom in, on the green button with a dash to zoom out, or on the green arrows for adjacent maps.


METAR-TAF: